Washington Executive (W32)
Clinton, MD
Field Elevation: 249
Lat: 38°44.89N  Long: 76°55.97W
CTAF/Unicom Freq: 122.8000
   
    
Weather Advisories
4/17/2014 11:39 Z
Altimeter 30.64" Hg
Wind 050° @ 3 KT
Gusts 5 KT
Temperature 3° C (37° F)
Dewpoint -2° C (28° F)
Relative Humidity 70%
Density Altitude -2,221 feet
Condensation Altitude 2,691 feet
Wind Chill 2° C (36° F)
  Wind and Runways
Indicated Runway = 5
History
 
 
More Info
All DigiWx sites map
Weather Radar
NOAA Forecast
 
Airport IQ 5010
(HMIEM) Shock Trauma Ctr
(26N) Ocean City
 
about DigiWx
 
FAA Disclaimer: The data displayed is for advisory purposes only and is not to be used for flight planning or operations. For official data, please call (not available) to hear the current automated AWOS voice message.
  METAR W32 171139Z AUTO 05003G05KT 03/M02 A3064